Time;durP1;ratioP1;P1;durP2;ratioP2;P2;SDS_P1;SDS_P2;PMS_P1;PMS_P2;Temp;Humidity;BMP_temperature;BMP_pressure;BME280_temperature;BME280_humidity;BME280_pressure;Samples;Min_cycle;Max_cycle;Signal;HPM_P1;HPM_P2
2023/12/08 00:01:43;;;;;;;52.47;23.75;;;;;;;29.65;57.82;101083.50;4959711;28;65877;-40
2023/12/08 00:04:13;;;;;;;42.63;21.83;;;;;;;29.71;58.24;101084.56;4969033;28;70763;-40
2023/12/08 00:06:44;;;;;;;40.08;22.48;;;;;;;29.75;58.49;101073.09;4958382;28;66316;-40
2023/12/08 00:09:14;;;;;;;32.17;21.52;;;;;;;29.83;59.09;101086.41;4976195;28;69961;-40
2023/12/08 00:11:44;;;;;;;39.72;22.30;;;;;;;29.76;61.09;101069.38;4974142;28;66485;-40
2023/12/08 00:14:14;;;;;;;38.90;21.92;;;;;;;29.91;60.87;101087.25;4965685;28;70803;-40
2023/12/08 00:16:44;;;;;;;39.55;21.52;;;;;;;29.88;63.57;101090.38;4970771;28;66797;-40
2023/12/08 00:19:15;;;;;;;36.28;21.63;;;;;;;29.85;61.11;101086.22;4947960;28;69233;-41
2023/12/08 00:21:45;;;;;;;37.65;20.63;;;;;;;30.01;62.01;101106.59;4961512;28;65912;-41
2023/12/08 00:24:15;;;;;;;30.80;20.95;;;;;;;30.05;61.86;101110.53;4964940;28;69815;-40
2023/12/08 00:26:45;;;;;;;53.33;22.33;;;;;;;30.05;65.10;101115.94;4967925;28;65678;-41
2023/12/08 00:29:18;;;;;;;40.10;22.15;;;;;;;30.08;64.14;101115.53;4971189;28;70140;-40
2023/12/08 00:31:48;;;;;;;40.92;21.85;;;;;;;30.10;62.85;101118.88;4961749;28;65872;-41
2023/12/08 00:34:18;;;;;;;42.95;24.52;;;;;;;30.12;64.85;101116.78;4963180;28;70490;-41
2023/12/08 00:36:51;;;;;;;41.88;23.75;;;;;;;30.12;63.57;101116.78;4945158;28;66546;-40
2023/12/08 00:39:22;;;;;;;45.67;23.92;;;;;;;30.20;63.02;101134.66;4964715;28;70444;-40
2023/12/08 00:41:52;;;;;;;40.30;24.15;;;;;;;30.20;63.47;101140.94;4966606;28;66663;-39
2023/12/08 00:44:23;;;;;;;39.95;23.38;;;;;;;29.84;63.66;101073.75;4970655;28;69752;-38
2023/12/08 00:46:53;;;;;;;42.70;24.05;;;;;;;30.26;67.20;101150.94;4972333;28;66792;-48
2023/12/08 00:49:24;;;;;;;34.25;21.73;;;;;;;30.32;64.05;101146.56;4972220;28;70458;-40
2023/12/08 00:51:54;;;;;;;41.00;21.95;;;;;;;30.32;65.43;101137.59;4967633;28;66683;-41
2023/12/08 00:54:24;;;;;;;34.05;21.70;;;;;;;30.25;64.21;101126.78;4952154;28;68405;-40
2023/12/08 00:56:54;;;;;;;41.22;21.67;;;;;;;30.35;62.91;101143.44;4970281;28;66032;-39
2023/12/08 00:59:24;;;;;;;26.52;19.08;;;;;;;30.45;61.92;101153.81;4974225;28;70685;-39
2023/12/08 01:01:54;;;;;;;24.42;18.25;;;;;;;30.47;61.74;101152.56;4967987;28;66388;-40
2023/12/08 01:04:24;;;;;;;28.42;19.17;;;;;;;30.38;60.95;101143.00;4952646;28;69879;-39
2023/12/08 01:06:54;;;;;;;29.75;18.67;;;;;;;30.53;60.94;101161.69;4967468;28;65637;-40
2023/12/08 01:09:25;;;;;;;27.83;17.73;;;;;;;30.56;60.66;101161.28;4969917;28;69758;-39
2023/12/08 01:11:55;;;;;;;25.60;18.38;;;;;;;30.56;60.50;101166.69;4964208;28;66668;-40
2023/12/08 01:14:25;;;;;;;31.67;18.48;;;;;;;30.59;60.96;101171.72;4968989;28;69587;-40
2023/12/08 01:16:55;;;;;;;26.42;18.42;;;;;;;30.60;60.68;101170.66;4975623;28;65876;-40
2023/12/08 01:19:26;;;;;;;26.73;18.00;;;;;;;30.62;60.34;101174.00;4975806;28;69210;-40
2023/12/08 01:21:57;;;;;;;24.20;18.00;;;;;;;30.61;60.35;101174.19;4934200;28;65598;-40
2023/12/08 01:24:27;;;;;;;27.77;18.20;;;;;;;30.56;60.60;101166.69;4971385;28;69376;-40
2023/12/08 01:26:57;;;;;;;28.40;18.48;;;;;;;30.64;60.26;101184.59;4947169;28;66731;-39
2023/12/08 01:29:28;;;;;;;29.05;18.50;;;;;;;30.58;60.49;101159.19;4956914;28;69584;-39
2023/12/08 01:31:58;;;;;;;25.92;18.20;;;;;;;30.68;60.12;101183.97;4964381;28;66765;-39
2023/12/08 01:34:28;;;;;;;26.77;18.08;;;;;;;30.60;60.41;101172.53;4964061;28;69834;-40
2023/12/08 01:36:58;;;;;;;28.17;18.63;;;;;;;30.69;60.24;101185.63;4950594;28;66220;-40
2023/12/08 01:39:29;;;;;;;25.95;17.42;;;;;;;30.67;60.66;101178.75;4979227;28;70544;-40
2023/12/08 01:41:59;;;;;;;23.02;17.55;;;;;;;30.65;60.17;101187.09;4947188;28;65918;-39
2023/12/08 01:44:29;;;;;;;24.90;17.58;;;;;;;30.72;60.58;101193.31;4964134;28;69737;-39
2023/12/08 01:46:59;;;;;;;25.65;18.50;;;;;;;30.73;60.44;101186.88;4963396;28;66460;-40
2023/12/08 01:49:30;;;;;;;21.35;17.10;;;;;;;30.73;60.22;101184.19;4946235;28;69779;-39
2023/12/08 01:52:00;;;;;;;26.83;17.48;;;;;;;30.68;60.22;101175.03;4948638;28;65970;-40
2023/12/08 01:54:31;;;;;;;22.63;17.90;;;;;;;30.73;60.53;101183.34;4966205;28;70626;-39
2023/12/08 01:57:02;;;;;;;19.80;16.83;;;;;;;30.77;60.31;101187.28;4966246;28;67958;-40
2023/12/08 01:59:33;;;;;;;23.25;17.50;;;;;;;30.71;60.27;101170.00;4966253;28;70118;-40
2023/12/08 02:02:04;;;;;;;21.08;16.90;;;;;;;30.53;60.60;101134.63;4934780;28;64123;-40
2023/12/08 02:04:34;;;;;;;28.25;18.13;;;;;;;30.80;60.67;101177.94;4948176;28;70889;-40
2023/12/08 02:07:04;;;;;;;21.02;16.75;;;;;;;30.81;60.13;101185.00;4950588;28;65529;-40
2023/12/08 02:09:35;;;;;;;24.00;17.02;;;;;;;30.82;60.43;101181.25;4962770;28;70574;-39
2023/12/08 02:12:05;;;;;;;20.77;17.50;;;;;;;30.82;60.34;101176.69;4941089;28;66549;-39
2023/12/08 02:14:36;;;;;;;21.50;16.88;;;;;;;30.72;60.29;101157.28;4963107;28;70279;-39
2023/12/08 02:17:16;;;;;;;25.48;17.85;;;;;;;30.34;60.79;101103.03;4972119;28;65761;-39
2023/12/08 02:19:49;;;;;;;20.48;17.23;;;;;;;30.84;60.21;101174.59;4972098;28;70680;-40
2023/12/08 02:22:25;;;;;;;21.10;16.92;;;;;;;30.85;60.23;101172.72;4973282;28;65816;-39
2023/12/08 02:24:55;;;;;;;20.88;17.77;;;;;;;30.82;60.50;101165.84;4971018;28;69880;-39
2023/12/08 02:27:26;;;;;;;24.33;17.67;;;;;;;30.84;60.60;101165.63;4960424;28;66288;-39
2023/12/08 02:29:56;;;;;;;21.50;17.08;;;;;;;30.89;60.45;101174.75;4977118;28;70471;-39
2023/12/08 02:32:34;;;;;;;21.92;17.88;;;;;;;30.88;60.39;101169.56;4948956;28;66704;-39
2023/12/08 02:35:07;;;;;;;20.77;17.20;;;;;;;30.90;60.86;101162.06;4948272;28;69580;-39
2023/12/08 02:37:44;;;;;;;20.90;17.10;;;;;;;30.55;60.70;101116.31;4978528;28;66569;-39
2023/12/08 02:40:15;;;;;;;25.83;18.48;;;;;;;30.84;60.86;101147.50;4963948;28;70254;-40
2023/12/08 02:42:46;;;;;;;26.83;17.67;;;;;;;30.90;60.80;101162.06;4972551;28;67562;-39
2023/12/08 02:45:16;;;;;;;26.60;18.08;;;;;;;30.49;60.54;101092.81;4935502;28;70744;-39
2023/12/08 02:47:46;;;;;;;21.50;17.75;;;;;;;30.98;60.38;101163.69;4965407;28;65390;-39
2023/12/08 02:50:16;;;;;;;27.15;18.58;;;;;;;30.89;60.60;101147.69;4950573;28;70282;-39
2023/12/08 02:52:46;;;;;;;24.30;18.85;;;;;;;31.00;60.88;101157.00;4973680;28;65411;-39
2023/12/08 02:55:16;;;;;;;23.80;18.75;;;;;;;31.01;60.38;101155.13;4969369;28;70557;-40
2023/12/08 02:57:46;;;;;;;23.10;17.58;;;;;;;31.01;60.71;101158.69;4968963;28;66036;-40
2023/12/08 03:00:17;;;;;;;23.38;17.40;;;;;;;31.04;60.69;101165.56;4965836;28;69523;-40
2023/12/08 03:02:46;;;;;;;23.27;17.05;;;;;;;31.01;60.88;101164.13;4970058;28;66693;-40
2023/12/08 03:05:17;;;;;;;21.20;17.88;;;;;;;31.05;60.65;101170.75;4971072;28;70281;-39
2023/12/08 03:07:47;;;;;;;23.48;17.77;;;;;;;31.03;60.74;101159.28;4969870;28;64478;-39
2023/12/08 03:10:18;;;;;;;24.27;18.48;;;;;;;31.08;60.62;101153.25;4946719;28;69711;-39
2023/12/08 03:12:48;;;;;;;24.33;18.13;;;;;;;31.05;61.04;101132.00;4952109;28;66259;-39
2023/12/08 03:15:18;;;;;;;22.10;18.77;;;;;;;31.09;60.70;101131.34;4967780;28;69951;-39
2023/12/08 03:17:49;;;;;;;25.50;19.10;;;;;;;31.12;60.62;101139.06;4955512;28;65517;-40
2023/12/08 03:20:19;;;;;;;25.13;19.60;;;;;;;31.12;60.96;101130.94;4954746;28;70445;-39
2023/12/08 03:22:49;;;;;;;23.10;19.00;;;;;;;31.13;60.38;101135.28;4948366;28;65192;-39
2023/12/08 03:25:19;;;;;;;27.90;20.63;;;;;;;31.13;60.88;101132.56;4967528;28;69642;-40
2023/12/08 03:27:49;;;;;;;28.80;20.27;;;;;;;31.11;60.82;101123.81;4967396;28;66633;-39
2023/12/08 03:30:19;;;;;;;24.38;19.40;;;;;;;31.14;61.08;101117.97;4964393;28;70187;-39
2023/12/08 03:32:50;;;;;;;29.30;20.15;;;;;;;31.20;60.58;101126.28;4950572;28;66048;-39
2023/12/08 03:35:21;;;;;;;29.77;20.63;;;;;;;31.19;60.96;101119.22;4966766;28;69993;-40
2023/12/08 03:37:51;;;;;;;24.40;19.75;;;;;;;31.15;61.11;101114.22;4969498;28;65854;-40
2023/12/08 03:40:21;;;;;;;23.88;20.05;;;;;;;31.24;60.61;101120.22;4967278;28;70590;-40
2023/12/08 03:42:51;;;;;;;30.42;20.58;;;;;;;31.26;61.21;101117.28;4971165;28;65404;-40
2023/12/08 03:45:21;;;;;;;29.98;21.15;;;;;;;31.26;60.65;101112.72;4977453;28;70772;-40
2023/12/08 03:47:51;;;;;;;28.52;21.02;;;;;;;31.21;60.98;101087.31;4964043;28;65752;-39
2023/12/08 03:50:22;;;;;;;27.15;20.83;;;;;;;31.24;60.70;101084.16;4946876;28;69798;-39
2023/12/08 03:52:54;;;;;;;29.25;20.90;;;;;;;31.29;60.55;101095.19;4964331;28;66598;-39
2023/12/08 03:55:24;;;;;;;25.60;21.42;;;;;;;31.32;60.98;101097.47;4964933;28;70470;-39
2023/12/08 03:57:54;;;;;;;35.00;23.58;;;;;;;31.29;60.93;101082.47;4969000;28;65539;-40
2023/12/08 04:00:24;;;;;;;32.08;23.25;;;;;;;31.34;61.00;101081.78;4944390;28;70995;-40
2023/12/08 04:02:54;;;;;;;33.42;23.92;;;;;;;31.31;60.57;101077.63;4966232;28;66447;-40
2023/12/08 04:05:24;;;;;;;34.55;24.40;;;;;;;31.29;60.87;101071.63;4963968;28;68998;-40
2023/12/08 04:07:54;;;;;;;36.00;24.05;;;;;;;31.39;61.10;101082.00;4964760;28;66737;-40
2023/12/08 04:10:24;;;;;;;32.80;24.38;;;;;;;31.38;60.79;101073.03;4963346;28;70303;-40
2023/12/08 04:12:54;;;;;;;31.17;23.98;;;;;;;31.41;60.83;101074.50;4949613;28;66507;-40
2023/12/08 04:15:24;;;;;;;33.50;24.45;;;;;;;31.42;60.85;101076.13;4958297;28;69056;-40
2023/12/08 04:17:54;;;;;;;31.15;23.40;;;;;;;31.45;60.65;101078.41;4955215;28;65755;-40
2023/12/08 04:20:25;;;;;;;34.22;25.00;;;;;;;31.47;60.99;101065.47;4970185;28;70479;-40
2023/12/08 04:22:55;;;;;;;32.92;24.98;;;;;;;31.42;60.73;101050.91;4971658;28;66138;-39
2023/12/08 04:25:25;;;;;;;38.75;25.45;;;;;;;31.50;60.65;101062.31;4976325;28;69066;-39
2023/12/08 04:27:55;;;;;;;33.47;25.50;;;;;;;31.53;60.77;101053.75;4965149;28;65805;-39
2023/12/08 04:30:25;;;;;;;32.47;25.50;;;;;;;31.43;60.83;101020.06;4950368;28;69226;-39
2023/12/08 04:32:55;;;;;;;36.85;26.05;;;;;;;31.55;60.47;101034.56;4970771;28;65898;-39
2023/12/08 04:35:25;;;;;;;31.02;25.08;;;;;;;31.47;60.76;101022.09;4966536;28;69184;-39
2023/12/08 04:37:56;;;;;;;37.60;26.75;;;;;;;31.58;60.66;101018.66;4947791;28;65420;-39
2023/12/08 04:40:25;;;;;;;35.38;27.02;;;;;;;31.60;61.14;101021.16;4971597;28;69521;-40
2023/12/08 04:42:56;;;;;;;31.52;25.33;;;;;;;31.58;61.04;101007.81;4949923;28;65965;-40
2023/12/08 04:45:26;;;;;;;33.28;26.65;;;;;;;31.59;60.94;101001.34;4950272;28;70201;-39
2023/12/08 04:47:56;;;;;;;33.97;25.42;;;;;;;31.63;60.86;101000.91;4974609;28;66922;-40
2023/12/08 04:50:27;;;;;;;32.88;24.85;;;;;;;31.66;60.81;101003.19;4976019;28;70722;-39
2023/12/08 04:52:57;;;;;;;32.00;25.40;;;;;;;31.69;60.82;100992.69;4973773;28;65894;-39
2023/12/08 04:55:27;;;;;;;35.05;25.65;;;;;;;31.71;60.75;100987.06;4968373;28;69716;-39
2023/12/08 04:57:57;;;;;;;33.58;25.35;;;;;;;31.61;60.99;100961.25;4974498;28;66353;-40
2023/12/08 05:00:28;;;;;;;37.22;26.90;;;;;;;31.69;60.64;100962.03;4963467;28;70835;-40
2023/12/08 05:02:57;;;;;;;35.30;26.30;;;;;;;31.72;60.87;100956.16;4972552;28;65746;-40
2023/12/08 05:05:28;;;;;;;30.98;26.05;;;;;;;31.72;60.81;100948.03;4962724;28;70287;-40
2023/12/08 05:07:58;;;;;;;32.47;26.02;;;;;;;31.81;61.00;100952.09;4961799;28;66325;-41
2023/12/08 05:10:28;;;;;;;31.88;25.60;;;;;;;31.79;61.02;100937.97;4971602;28;69954;-41
2023/12/08 05:12:59;;;;;;;40.88;26.23;;;;;;;31.81;61.05;100924.97;4967752;28;65735;-39
2023/12/08 05:15:29;;;;;;;30.50;24.60;;;;;;;31.87;60.90;100929.50;4967267;28;70501;-40
2023/12/08 05:17:59;;;;;;;31.98;25.75;;;;;;;31.87;60.96;100924.06;4953499;28;66298;-40
2023/12/08 05:20:30;;;;;;;29.63;24.67;;;;;;;31.92;60.73;100932.41;4969085;28;70057;-40
2023/12/08 05:23:00;;;;;;;32.15;26.08;;;;;;;31.94;60.79;100919.44;4973521;28;65592;-41
2023/12/08 05:25:31;;;;;;;31.15;24.70;;;;;;;31.95;60.77;100921.09;4965319;28;70496;-40
2023/12/08 05:28:01;;;;;;;30.42;24.30;;;;;;;31.94;60.74;100905.88;4959679;28;66706;-40
2023/12/08 05:30:31;;;;;;;32.17;24.80;;;;;;;32.00;60.71;100907.66;4967261;28;69643;-40
2023/12/08 05:33:02;;;;;;;27.85;24.17;;;;;;;31.93;60.60;100890.66;4967400;28;66984;-40
2023/12/08 05:35:32;;;;;;;32.85;23.70;;;;;;;31.92;60.68;100888.97;4951544;28;70405;-40
2023/12/08 05:38:02;;;;;;;27.33;23.63;;;;;;;32.05;60.53;100896.97;4960572;28;66823;-40
2023/12/08 05:40:32;;;;;;;27.95;23.73;;;;;;;32.09;60.63;100893.78;4969150;28;70520;-40
2023/12/08 05:43:03;;;;;;;30.40;24.25;;;;;;;31.96;60.37;100863.06;4961276;28;66624;-40
2023/12/08 05:45:33;;;;;;;27.52;23.25;;;;;;;32.10;60.66;100879.19;4967193;28;70107;-40
2023/12/08 05:48:04;;;;;;;29.88;23.95;;;;;;;32.13;60.60;100870.59;4972019;28;65888;-41
2023/12/08 05:50:34;;;;;;;32.50;24.33;;;;;;;32.13;60.66;100863.28;4950688;28;70431;-39
2023/12/08 05:53:04;;;;;;;28.38;23.75;;;;;;;32.17;60.45;100869.06;4957119;28;66752;-40
2023/12/08 05:55:34;;;;;;;28.88;23.48;;;;;;;32.19;60.72;100856.09;4963315;28;70325;-40
2023/12/08 05:58:04;;;;;;;29.40;24.17;;;;;;;32.20;60.39;100850.41;4960232;28;66701;-40
2023/12/08 06:00:35;;;;;;;29.90;23.98;;;;;;;32.21;60.54;100843.94;4962759;28;70776;-39
2023/12/08 06:03:05;;;;;;;32.20;24.05;;;;;;;32.24;60.35;100848.91;4965203;28;66916;-39
2023/12/08 06:05:35;;;;;;;28.30;23.23;;;;;;;32.16;60.29;100829.41;4942811;28;70594;-40
2023/12/08 06:08:05;;;;;;;28.25;23.63;;;;;;;32.27;60.69;100842.19;4962838;28;66811;-40
2023/12/08 06:10:35;;;;;;;26.30;23.08;;;;;;;32.19;60.43;100823.53;4963357;28;70548;-40
2023/12/08 06:13:05;;;;;;;30.63;23.02;;;;;;;32.28;60.46;100838.41;4968820;28;66697;-40
2023/12/08 06:15:35;;;;;;;26.73;22.58;;;;;;;32.22;60.56;100820.34;4977667;28;70319;-40
2023/12/08 06:18:05;;;;;;;26.02;22.60;;;;;;;32.31;60.43;100835.25;4961407;28;66257;-40
2023/12/08 06:20:36;;;;;;;25.75;23.20;;;;;;;32.34;60.50;100837.50;4945604;28;69748;-40
2023/12/08 06:23:06;;;;;;;29.80;24.38;;;;;;;32.34;60.15;100834.78;4943959;28;65532;-39
2023/12/08 06:25:36;;;;;;;28.25;22.48;;;;;;;32.38;60.24;100827.84;4942993;28;69393;-39
2023/12/08 06:28:06;;;;;;;25.85;23.05;;;;;;;32.35;60.21;100822.06;4970174;28;67059;-39
2023/12/08 06:30:36;;;;;;;26.95;21.98;;;;;;;32.39;60.05;100824.06;4970279;28;69306;-40
2023/12/08 06:33:06;;;;;;;27.48;24.02;;;;;;;32.41;60.44;100821.13;4970382;28;66627;-40
2023/12/08 06:35:36;;;;;;;28.05;23.42;;;;;;;32.38;60.18;100799.88;4950040;28;70312;-40
2023/12/08 06:38:07;;;;;;;27.48;22.48;;;;;;;32.44;60.00;100810.63;4964658;28;66373;-40
2023/12/08 06:40:37;;;;;;;24.83;22.27;;;;;;;32.46;60.16;100811.25;4970962;28;69827;-40
2023/12/08 06:43:07;;;;;;;29.67;23.67;;;;;;;32.36;60.27;100786.50;4954027;28;65568;-40
2023/12/08 06:45:37;;;;;;;25.85;22.98;;;;;;;32.46;59.88;100803.09;4975940;28;69895;-40
2023/12/08 06:48:08;;;;;;;26.58;21.98;;;;;;;32.53;60.18;100796.72;4942948;28;66499;-40
2023/12/08 06:50:39;;;;;;;24.95;22.30;;;;;;;32.51;60.06;100782.56;4972065;28;71279;-45
2023/12/08 06:53:09;;;;;;;27.35;22.52;;;;;;;32.49;59.98;100780.91;4960063;28;66487;-39
2023/12/08 06:55:39;;;;;;;25.85;23.13;;;;;;;32.49;60.11;100780.91;4966723;28;70373;-47
2023/12/08 06:58:09;;;;;;;25.30;22.73;;;;;;;32.58;59.99;100783.28;4943025;28;66388;-40
2023/12/08 07:00:39;;;;;;;25.25;22.20;;;;;;;32.60;59.81;100792.84;4949164;28;70241;-40
2023/12/08 07:03:10;;;;;;;26.30;22.38;;;;;;;32.61;59.76;100777.38;4968224;28;65797;-40
2023/12/08 07:05:40;;;;;;;23.15;20.75;;;;;;;32.56;59.94;100769.09;4944146;28;69614;-40
2023/12/08 07:08:10;;;;;;;24.48;21.27;;;;;;;32.64;59.38;100774.19;4957756;28;65531;-40
2023/12/08 07:10:40;;;;;;;24.25;21.90;;;;;;;32.65;59.95;100773.97;4962926;28;70284;-41
2023/12/08 07:13:10;;;;;;;25.23;22.42;;;;;;;32.58;59.72;100761.56;4970312;28;66805;-40
2023/12/08 07:15:40;;;;;;;23.65;21.25;;;;;;;32.62;59.86;100768.16;4965118;28;69105;-40
2023/12/08 07:18:10;;;;;;;24.75;22.27;;;;;;;32.68;59.75;100769.94;4981967;28;66757;-41
2023/12/08 07:20:42;;;;;;;23.58;21.27;;;;;;;32.66;59.72;100769.38;4977760;28;70271;-40
2023/12/08 07:23:12;;;;;;;23.33;21.03;;;;;;;32.67;59.49;100776.44;4952476;28;65941;-40
2023/12/08 07:25:42;;;;;;;25.27;22.00;;;;;;;32.74;59.58;100777.16;4963540;28;70622;-41
2023/12/08 07:28:12;;;;;;;23.52;21.13;;;;;;;32.68;59.58;100757.19;4966966;28;66084;-40
2023/12/08 07:30:42;;;;;;;24.08;21.67;;;;;;;32.78;59.63;100770.19;4972125;28;70375;-40
2023/12/08 07:33:13;;;;;;;25.23;22.55;;;;;;;32.80;59.79;100778.94;4971613;28;65521;-39
2023/12/08 07:35:43;;;;;;;26.90;22.33;;;;;;;32.57;59.60;100738.16;4947732;28;70022;-39
2023/12/08 07:38:13;;;;;;;28.27;23.42;;;;;;;32.81;59.64;100771.59;4958507;28;66013;-40
2023/12/08 07:40:45;;;;;;;24.85;22.45;;;;;;;32.84;59.49;100769.22;4975520;28;69540;-40
2023/12/08 07:43:15;;;;;;;;;;;;;;;32.59;60.68;100774.06;4969952;28;65491;-40
2023/12/08 07:45:45;;;;;;;26.67;23.50;;;;;;;32.78;59.92;100764.75;4960075;28;69764;-40
2023/12/08 07:48:16;;;;;;;26.50;23.65;;;;;;;32.76;59.49;100764.16;4956939;28;65990;-40
2023/12/08 07:50:46;;;;;;;30.05;23.88;;;;;;;32.82;59.45;100757.78;4949512;28;70593;-41
2023/12/08 07:53:17;;;;;;;25.23;22.63;;;;;;;32.78;59.40;100755.78;4952456;28;65581;-40
2023/12/08 07:55:47;;;;;;;28.15;25.05;;;;;;;32.78;59.44;100748.44;4967969;28;69379;-39
2023/12/08 07:58:17;;;;;;;26.30;23.55;;;;;;;32.91;59.54;100772.66;4955817;28;66626;-41
2023/12/08 08:00:48;;;;;;;33.03;24.90;;;;;;;32.90;59.34;100765.59;4968923;28;70194;-41
2023/12/08 08:03:18;;;;;;;30.52;24.42;;;;;;;32.87;59.53;100748.91;4954380;28;65979;-40
2023/12/08 08:05:48;;;;;;;29.38;23.95;;;;;;;32.92;59.42;100758.00;4974814;28;70052;-40
2023/12/08 08:08:18;;;;;;;25.35;22.70;;;;;;;32.90;59.67;100751.16;4975370;28;66533;-39
2023/12/08 08:10:49;;;;;;;29.92;24.73;;;;;;;32.88;59.32;100751.41;4953953;28;69590;-39
2023/12/08 08:13:19;;;;;;;28.17;25.25;;;;;;;32.93;59.52;100756.09;4947920;28;66718;-40
2023/12/08 08:15:49;;;;;;;26.55;23.70;;;;;;;32.91;59.50;100750.94;4965402;28;69227;-40
2023/12/08 08:18:19;;;;;;;27.70;24.27;;;;;;;32.91;59.62;100750.13;4966426;28;65627;-40
2023/12/08 08:20:50;;;;;;;28.10;25.15;;;;;;;32.93;59.58;100750.69;4952183;28;69969;-39
2023/12/08 08:23:20;;;;;;;27.23;24.30;;;;;;;32.92;59.54;100752.56;4954142;28;65377;-40
2023/12/08 08:25:50;;;;;;;26.85;24.13;;;;;;;32.91;59.71;100760.97;4950970;28;69690;-40
2023/12/08 08:28:21;;;;;;;26.55;23.88;;;;;;;32.91;59.81;100756.38;4949916;28;65048;-41
2023/12/08 08:30:51;;;;;;;28.23;25.55;;;;;;;32.86;59.87;100748.09;4966531;28;70411;-40
2023/12/08 08:33:22;;;;;;;27.45;23.90;;;;;;;32.85;59.55;100741.03;4963318;28;66342;-39
2023/12/08 08:35:53;;;;;;;31.52;24.75;;;;;;;32.90;59.56;100754.72;4955160;28;70115;-39
2023/12/08 08:38:23;;;;;;;27.88;24.95;;;;;;;32.89;59.98;100753.06;4966386;28;66515;-40
2023/12/08 08:40:53;;;;;;;34.15;26.27;;;;;;;32.90;59.58;100765.59;4975242;28;70691;-40
2023/12/08 08:43:23;;;;;;;28.85;25.75;;;;;;;32.86;59.65;100760.84;4963336;28;66199;-39
2023/12/08 08:45:53;;;;;;;28.70;25.77;;;;;;;32.90;59.60;100754.72;4962603;28;69626;-40
2023/12/08 08:48:24;;;;;;;27.80;24.77;;;;;;;32.85;59.69;100748.34;4950053;28;65521;-39
2023/12/08 08:50:54;;;;;;;28.05;24.70;;;;;;;32.89;59.96;100755.78;4955306;28;69710;-40
2023/12/08 08:53:24;;;;;;;30.42;26.38;;;;;;;32.87;59.66;100752.44;4965976;28;65414;-41
2023/12/08 08:55:54;;;;;;;28.65;25.45;;;;;;;32.89;59.55;100752.22;4974551;28;70613;-40
2023/12/08 08:58:24;;;;;;;29.02;25.83;;;;;;;32.87;59.78;100763.31;4967848;28;66520;-40
2023/12/08 09:00:54;;;;;;;32.33;27.02;;;;;;;32.84;59.70;100755.66;4970922;28;70069;-40
2023/12/08 09:03:25;;;;;;;34.15;26.67;;;;;;;32.84;60.25;100760.25;4965839;28;66725;-40
2023/12/08 09:05:55;;;;;;;29.73;25.30;;;;;;;32.76;59.88;100756.00;4971959;28;70614;-40
2023/12/08 09:08:26;;;;;;;28.42;24.42;;;;;;;32.81;60.14;100756.13;4967235;28;66322;-40
2023/12/08 09:10:57;;;;;;;27.60;24.77;;;;;;;32.85;60.05;100779.06;4966070;28;69942;-40
2023/12/08 09:13:29;;;;;;;28.48;24.55;;;;;;;32.88;59.79;100778.56;4967354;28;66135;-39
2023/12/08 09:15:59;;;;;;;33.95;24.23;;;;;;;32.85;60.13;100779.06;4964968;28;70197;-40
2023/12/08 09:18:29;;;;;;;31.98;25.10;;;;;;;32.76;61.45;100791.31;4966535;28;66131;-40
2023/12/08 09:21:00;;;;;;;31.90;24.47;;;;;;;32.46;62.64;100800.38;4948234;28;70070;-39
2023/12/08 09:23:31;;;;;;;33.35;23.75;;;;;;;32.32;64.68;100804.34;4963957;28;66073;-42
2023/12/08 09:26:01;;;;;;;28.35;24.23;;;;;;;32.31;64.64;100805.38;4968475;28;70175;-40
2023/12/08 09:28:31;;;;;;;27.15;24.17;;;;;;;32.25;64.69;100804.41;4965068;28;66626;-44
2023/12/08 09:31:01;;;;;;;26.13;23.42;;;;;;;32.23;65.52;100814.72;4945927;28;69635;-42
2023/12/08 09:33:32;;;;;;;23.75;21.23;;;;;;;32.18;66.40;100822.72;4963760;28;65742;-39
2023/12/08 09:36:02;;;;;;;23.27;20.85;;;;;;;32.16;66.44;100824.81;4965711;28;70283;-40
2023/12/08 09:38:32;;;;;;;22.98;20.73;;;;;;;31.88;65.43;100779.25;4966935;28;65635;-40
2023/12/08 09:41:04;;;;;;;24.13;20.20;;;;;;;32.17;65.94;100828.34;4971014;28;68702;-39
2023/12/08 09:43:49;;;;;;;21.17;18.00;;;;;;;32.35;63.98;100822.88;4962816;28;66297;-41
2023/12/08 09:46:20;;;;;;;21.23;18.75;;;;;;;32.49;63.30;100831.69;4973536;28;69177;-40
2023/12/08 09:48:55;;;;;;;20.33;18.42;;;;;;;32.55;63.03;100836.16;4961684;28;65046;-40
2023/12/08 09:51:27;;;;;;;20.08;17.30;;;;;;;32.49;62.81;100813.50;4931532;28;69009;-40
2023/12/08 09:53:57;;;;;;;20.43;18.03;;;;;;;32.64;62.70;100847.53;4963676;28;65615;-39
2023/12/08 09:56:29;;;;;;;19.08;17.17;;;;;;;32.67;62.51;100847.88;4969269;28;70246;-40
2023/12/08 09:58:59;;;;;;;17.60;16.00;;;;;;;32.58;62.87;100827.56;4958037;28;66821;-40
2023/12/08 10:01:30;;;;;;;18.08;16.35;;;;;;;32.71;62.69;100853.69;4971873;28;69527;-40
2023/12/08 10:04:00;;;;;;;17.20;15.75;;;;;;;32.68;62.57;100848.69;4940594;28;65835;-39
2023/12/08 10:06:32;;;;;;;18.30;16.55;;;;;;;32.67;62.63;100849.75;4969563;28;69601;-39
2023/12/08 10:09:04;;;;;;;22.60;16.55;;;;;;;32.70;62.73;100857.44;4975473;28;66569;-39
2023/12/08 10:11:34;;;;;;;21.92;16.13;;;;;;;32.63;62.86;100845.88;4963878;28;69481;-40
2023/12/08 10:14:05;;;;;;;16.38;14.77;;;;;;;32.76;62.98;100867.38;4962610;28;67532;-40
2023/12/08 10:16:36;;;;;;;17.55;15.65;;;;;;;32.63;63.69;100876.56;4939935;28;69271;-40
2023/12/08 10:19:07;;;;;;;16.45;14.93;;;;;;;32.60;64.26;100879.75;4948420;28;66127;-39
2023/12/08 10:21:38;;;;;;;15.05;13.05;;;;;;;32.58;64.07;100881.03;4948464;28;70779;-41
2023/12/08 10:24:09;;;;;;;14.50;11.82;;;;;;;32.45;64.78;100872.00;4952314;28;66479;-40
2023/12/08 10:26:39;;;;;;;13.48;12.20;;;;;;;32.41;64.69;100876.25;4927005;28;69461;-40
2023/12/08 10:29:11;;;;;;;13.50;12.18;;;;;;;32.43;65.93;100890.41;4962898;28;65482;-43
2023/12/08 10:31:41;;;;;;;12.10;11.00;;;;;;;32.38;65.20;100878.59;4974544;28;69688;-41
2023/12/08 10:34:13;;;;;;;13.95;10.77;;;;;;;32.40;65.58;100884.59;4966881;28;66417;-40
2023/12/08 10:36:45;;;;;;;11.93;10.63;;;;;;;32.37;64.87;100888.59;4948051;28;70020;-40
2023/12/08 10:39:17;;;;;;;11.37;10.37;;;;;;;32.27;65.57;100880.19;4941329;28;66192;-41
2023/12/08 10:41:51;;;;;;;11.55;10.45;;;;;;;32.36;67.36;100900.53;4956056;28;69679;-40
2023/12/08 10:44:22;;;;;;;12.40;10.52;;;;;;;32.36;65.82;100911.38;4947106;28;65914;-41
2023/12/08 10:46:57;;;;;;;11.13;9.25;;;;;;;32.36;65.91;100916.81;4936964;28;69278;-40
2023/12/08 10:49:28;;;;;;;10.43;9.50;;;;;;;32.37;66.04;100920.34;4944743;28;65366;-41
2023/12/08 10:52:00;;;;;;;10.17;9.57;;;;;;;32.29;66.78;100918.81;4972122;28;69842;-40
2023/12/08 10:54:32;;;;;;;9.70;8.90;;;;;;;32.05;66.53;100877.97;4948533;28;66385;-41
2023/12/08 10:57:02;;;;;;;;;;;;;;;32.06;70.16;100922.22;4944416;28;70109;-41
2023/12/08 10:59:33;;;;;;;9.82;8.95;;;;;;;32.31;66.34;100930.25;4967783;28;66958;-41
2023/12/08 11:02:08;;;;;;;9.90;9.20;;;;;;;32.32;66.74;100937.34;4954217;28;69948;-42
2023/12/08 11:04:42;;;;;;;9.35;8.38;;;;;;;32.33;67.32;100936.28;4968642;28;66037;-40
2023/12/08 11:07:17;;;;;;;9.52;8.30;;;;;;;32.36;66.95;100946.69;4930683;28;68877;-40
2023/12/08 11:09:51;;;;;;;9.88;9.05;;;;;;;32.37;66.44;100940.19;4964252;28;66292;-41
2023/12/08 11:12:27;;;;;;;9.07;8.18;;;;;;;32.09;66.18;100891.91;4961373;28;43092;-40
2023/12/08 11:15:09;;;;;;;8.55;7.70;;;;;;;32.34;66.20;100935.22;4970410;28;66507;-40
2023/12/08 11:17:53;;;;;;;11.45;8.63;;;;;;;32.37;66.20;100940.19;4962577;28;69751;-40
2023/12/08 11:20:24;;;;;;;11.38;9.27;;;;;;;32.51;65.82;100945.47;4967494;28;66631;-41
2023/12/08 11:22:55;;;;;;;13.52;11.05;;;;;;;32.52;65.61;100947.16;4971516;28;69525;-40
2023/12/08 11:25:34;;;;;;;9.25;8.45;;;;;;;32.16;65.51;100905.41;4969112;28;65827;-41